KTUS/TUS METAR and TAF weather

Enter ICAO airport designator
Station Type Date Time Source
KTUS METAR 2022/12/10 01:53 UTC NOAA

KTUS 100153Z 34004KT 10SM CLR 13/03 A3005 RMK AO2 SLP163 T01280028


Station Type Date Time Source
KTUS Decoded METAR 2022/12/10 01:53 UTC NOAA

TUCSON INTERNATIONAL AIRPORT , AZ, United States (KTUS) 32-08N 110-57W 786M
Dec 09, 2022 - 08:53 PM EST / 2022.12.10 0153 UTC
Wind: from the NNW (340 degrees) at 5 MPH (4 KT):0
Visibility: 10 mile(s):0
Sky conditions: clear
Temperature: 55.0 F (12.8 C)
Dew Point: 37.0 F (2.8 C)
Relative Humidity: 50%
Pressure (altimeter): 30.05 in. Hg (1017 hPa)
ob: KTUS 100153Z 34004KT 10SM CLR 13/03 A3005 RMK AO2 SLP163 T01280028
cycle: 2

Station Type Date Time Source
KTUS TAF 2022/12/09 18:30 UTC NOAA

TAF KTUS 091726Z 0918/1018 15007KT P6SM FEW250
FM092000 33007KT P6SM SKC
FM100400 22005KT P6SM SKC
FM100600 14006KT P6SM SKC

Example: see airport list